createdAt,value
2022-09-01T00:00:02.002Z,3.63
2022-09-01T00:02:30.171Z,3.77
2022-09-01T00:04:59.023Z,3.83
2022-09-01T00:07:30.161Z,3.87
2022-09-01T00:09:57.725Z,3.67
2022-09-01T00:12:25.729Z,3.50
2022-09-01T00:14:53.001Z,3.20
2022-09-01T00:17:19.884Z,3.20
2022-09-01T00:19:46.689Z,3.93
2022-09-01T00:22:13.570Z,4.10
2022-09-01T00:24:40.364Z,4.10
2022-09-01T00:27:07.223Z,3.60
2022-09-01T00:29:34.493Z,4.40
2022-09-01T00:32:01.221Z,4.17
2022-09-01T00:34:27.937Z,3.90
2022-09-01T00:36:54.694Z,3.77
2022-09-01T00:39:21.468Z,4.20
2022-09-01T00:41:50.389Z,4.03
2022-09-01T00:44:23.344Z,3.57
2022-09-01T00:46:55.671Z,4.57
2022-09-01T00:49:34.871Z,4.00
2022-09-01T00:52:10.799Z,4.60
2022-09-01T00:54:42.329Z,4.60
2022-09-01T00:57:12.651Z,4.70
2022-09-01T01:00:11.142Z,4.53
2022-09-01T01:02:40.539Z,4.67
2022-09-01T01:05:08.545Z,4.33
2022-09-01T01:07:42.410Z,4.50
2022-09-01T01:10:15.808Z,5.13
2022-09-01T01:12:43.846Z,4.60
2022-09-01T01:15:12.694Z,4.70
2022-09-01T01:17:40.179Z,4.40
2022-09-01T01:20:27.999Z,4.73
2022-09-01T01:23:09.189Z,5.00
2022-09-01T01:25:42.059Z,4.10
2022-09-01T01:28:24.588Z,4.57
2022-09-01T01:30:55.395Z,4.47
2022-09-01T01:33:27.135Z,3.80
2022-09-01T01:35:57.647Z,4.03
2022-09-01T01:38:25.196Z,3.80
2022-09-01T01:40:54.441Z,4.40
2022-09-01T01:43:23.165Z,4.43
2022-09-01T01:45:52.766Z,4.20
2022-09-01T01:48:23.912Z,4.43
2022-09-01T01:50:53.104Z,3.90
2022-09-01T01:53:20.804Z,4.17
2022-09-01T01:55:49.588Z,4.33
2022-09-01T01:58:22.103Z,3.90
2022-09-01T02:00:50.925Z,4.53
2022-09-01T02:03:22.009Z,4.27
2022-09-01T02:05:50.520Z,4.40
2022-09-01T02:08:20.888Z,4.03
2022-09-01T02:10:51.211Z,5.07
2022-09-01T02:13:20.916Z,4.00
2022-09-01T02:15:50.164Z,4.53
2022-09-01T02:18:20.135Z,4.33
2022-09-01T02:20:49.470Z,4.30
2022-09-01T02:23:23.218Z,4.27
2022-09-01T02:26:14.599Z,4.63
2022-09-01T02:28:44.149Z,4.50
2022-09-01T02:31:12.044Z,3.90
2022-09-01T02:33:40.965Z,4.17
2022-09-01T02:36:13.293Z,4.10
2022-09-01T02:38:46.773Z,4.20
2022-09-01T02:41:23.076Z,3.53
2022-09-01T02:43:50.782Z,3.83
2022-09-01T02:46:18.884Z,3.70
2022-09-01T02:48:46.189Z,3.90
2022-09-01T02:51:18.419Z,4.13
2022-09-01T02:53:53.018Z,4.77
2022-09-01T02:56:25.911Z,3.33
2022-09-01T02:58:53.992Z,3.70
2022-09-01T03:01:32.099Z,3.43
2022-09-01T03:04:02.846Z,3.20
2022-09-01T03:06:34.044Z,3.80
2022-09-01T03:09:02.089Z,3.40
2022-09-01T03:11:31.757Z,2.70
2022-09-01T03:13:59.324Z,3.30
2022-09-01T03:16:26.184Z,3.10
2022-09-01T03:18:52.972Z,4.07
2022-09-01T03:21:21.163Z,3.33
2022-09-01T03:23:49.696Z,3.70
2022-09-01T03:26:19.430Z,3.90
2022-09-01T03:28:47.063Z,3.80
2022-09-01T03:31:14.552Z,3.43
2022-09-01T03:33:42.143Z,3.27
2022-09-01T03:36:15.266Z,3.50
2022-09-01T03:38:43.931Z,3.90
2022-09-01T03:41:13.291Z,4.17
2022-09-01T03:43:46.004Z,3.10
2022-09-01T03:46:21.483Z,3.60
2022-09-01T03:48:55.333Z,3.90
2022-09-01T03:51:23.413Z,3.10
2022-09-01T03:53:54.759Z,3.70
2022-09-01T03:56:24.658Z,4.43
2022-09-01T03:58:52.649Z,4.00
2022-09-01T04:01:19.961Z,3.90
2022-09-01T04:03:50.897Z,3.70
2022-09-01T04:06:21.961Z,3.80
2022-09-01T04:08:48.753Z,2.93
2022-09-01T04:11:23.959Z,3.77
2022-09-01T04:13:51.307Z,4.33
2022-09-01T04:16:42.614Z,3.17
2022-09-01T04:19:20.443Z,3.90
2022-09-01T04:21:52.225Z,3.67
2022-09-01T04:24:19.139Z,3.60
2022-09-01T04:26:49.635Z,3.47
2022-09-01T04:29:27.068Z,3.70
2022-09-01T04:32:02.190Z,3.07
2022-09-01T04:34:37.113Z,3.30
2022-09-01T04:37:18.141Z,3.60
2022-09-01T04:39:56.024Z,2.73
2022-09-01T04:42:27.305Z,3.53
2022-09-01T04:44:56.609Z,2.80
2022-09-01T04:47:35.679Z,3.30
2022-09-01T04:50:05.935Z,3.30
2022-09-01T04:52:32.675Z,3.90
2022-09-01T04:54:59.512Z,3.10
2022-09-01T04:57:27.639Z,3.20
2022-09-01T04:59:56.876Z,3.17
2022-09-01T05:02:27.193Z,2.97
2022-09-01T05:04:55.087Z,3.50
2022-09-01T05:07:23.614Z,3.20
2022-09-01T05:09:57.985Z,2.70
2022-09-01T05:12:27.827Z,3.33
2022-09-01T05:14:56.038Z,2.60
2022-09-01T05:17:25.947Z,3.40
2022-09-01T05:19:52.673Z,2.87
2022-09-01T05:22:22.297Z,2.43
2022-09-01T05:24:51.445Z,2.83
2022-09-01T05:27:22.857Z,2.50
2022-09-01T05:29:50.450Z,2.83
2022-09-01T05:32:17.459Z,2.70
2022-09-01T05:34:45.181Z,2.80
2022-09-01T05:37:15.015Z,2.87
2022-09-01T05:39:41.732Z,2.80
2022-09-01T05:42:08.681Z,2.50
2022-09-01T05:44:36.402Z,2.53
2022-09-01T05:47:05.386Z,2.67
2022-09-01T05:49:33.264Z,2.50
2022-09-01T05:52:00.497Z,2.83
2022-09-01T05:54:27.970Z,3.40
2022-09-01T05:56:58.703Z,2.50
2022-09-01T05:59:31.925Z,2.77
2022-09-01T06:02:00.479Z,2.60
2022-09-01T06:04:27.874Z,3.07
2022-09-01T06:07:06.792Z,3.00
2022-09-01T06:09:39.161Z,2.30
2022-09-01T06:12:06.735Z,2.77
2022-09-01T06:14:33.944Z,2.90
2022-09-01T06:17:01.087Z,2.90
2022-09-01T06:19:28.551Z,2.40
2022-09-01T06:21:57.057Z,2.57
2022-09-01T06:24:23.810Z,2.50
2022-09-01T06:26:51.035Z,3.07
2022-09-01T06:29:19.878Z,2.50
2022-09-01T06:31:51.764Z,2.43
2022-09-01T06:34:19.644Z,2.93
2022-09-01T06:36:48.542Z,2.47
2022-09-01T06:39:20.258Z,1.83
2022-09-01T06:41:53.118Z,2.13
2022-09-01T06:44:23.212Z,2.60
2022-09-01T06:46:51.859Z,3.20
2022-09-01T06:49:23.624Z,2.37
2022-09-01T06:51:52.798Z,2.20
2022-09-01T06:54:21.109Z,1.77
2022-09-01T06:56:51.745Z,2.10
2022-09-01T06:59:20.534Z,2.30
2022-09-01T07:01:49.114Z,2.30
2022-09-01T07:04:22.113Z,2.00
2022-09-01T07:07:00.187Z,2.63
2022-09-01T07:09:38.930Z,2.57
2022-09-01T07:12:27.569Z,2.00
2022-09-01T07:17:43.222Z,2.10
2022-09-01T07:20:27.210Z,2.20
2022-09-01T07:26:01.001Z,1.80
2022-09-01T07:28:39.904Z,2.30
2022-09-01T07:34:39.064Z,1.80
2022-09-01T07:39:49.882Z,1.87
2022-09-01T07:45:26.188Z,2.00
2022-09-01T07:47:54.327Z,1.60
2022-09-01T07:51:34.277Z,1.47
2022-09-01T07:53:12.647Z,1.40
2022-09-01T07:55:42.226Z,1.30
2022-09-01T07:58:11.746Z,1.57
2022-09-01T08:00:40.537Z,1.30
2022-09-01T08:03:07.453Z,1.07
2022-09-01T08:05:34.718Z,1.30
2022-09-01T08:08:01.481Z,1.37
2022-09-01T08:10:28.584Z,1.30
2022-09-01T08:12:56.964Z,6.47
2022-09-01T08:15:41.820Z,2.80
2022-09-01T08:18:18.225Z,2.07
2022-09-01T08:20:48.279Z,1.43
2022-09-01T08:23:18.517Z,1.67
2022-09-01T08:25:46.472Z,1.40
2022-09-01T08:28:15.588Z,1.02
2022-09-01T08:30:49.181Z,1.33
2022-09-01T08:33:20.204Z,1.15
2022-09-01T08:35:48.543Z,1.17
2022-09-01T08:38:16.023Z,1.05
2022-09-01T08:40:44.372Z,1.13
2022-09-01T08:43:31.233Z,1.10
2022-09-01T08:45:59.425Z,1.10
2022-09-01T08:49:18.507Z,1.30
2022-09-01T08:51:20.569Z,1.17
2022-09-01T08:53:57.915Z,1.08
2022-09-01T08:56:25.173Z,0.98
2022-09-01T08:58:54.179Z,1.35
2022-09-01T09:01:45.337Z,1.10
2022-09-01T09:04:27.440Z,1.10
2022-09-01T09:07:05.621Z,0.95
2022-09-01T09:09:38.562Z,0.98
2022-09-01T09:12:24.143Z,1.23
2022-09-01T09:15:18.154Z,1.00
2022-09-01T09:17:59.486Z,1.00
2022-09-01T09:20:28.156Z,1.05
2022-09-01T09:22:55.574Z,1.20
2022-09-01T09:25:24.279Z,0.80
2022-09-01T09:28:00.433Z,1.08
2022-09-01T09:30:28.861Z,0.90
2022-09-01T09:33:46.647Z,1.33
2022-09-01T09:35:48.048Z,1.35
2022-09-01T09:38:29.136Z,1.08
2022-09-01T09:41:15.937Z,1.00
2022-09-01T09:44:05.225Z,1.25
2022-09-01T09:46:31.970Z,1.35
2022-09-01T09:49:34.914Z,1.35
2022-09-01T09:52:10.211Z,0.82
2022-09-01T09:54:39.846Z,0.93
2022-09-01T09:57:11.665Z,1.15
2022-09-01T10:00:04.071Z,1.02
2022-09-01T10:02:35.885Z,1.08
2022-09-01T10:05:25.041Z,0.77
2022-09-01T10:07:53.329Z,1.25
2022-09-01T10:10:38.826Z,1.00
2022-09-01T10:13:10.558Z,2.53
2022-09-01T10:15:37.883Z,2.22
2022-09-01T10:18:19.978Z,0.98
2022-09-01T10:21:07.905Z,0.75
2022-09-01T10:23:37.733Z,1.02
2022-09-01T10:26:19.457Z,1.00
2022-09-01T10:28:51.303Z,1.10
2022-09-01T10:31:20.172Z,1.00
2022-09-01T10:33:47.970Z,1.20
2022-09-01T10:36:16.833Z,1.30
2022-09-01T10:38:53.545Z,1.37
2022-09-01T10:41:53.340Z,1.10
2022-09-01T10:44:35.772Z,1.17
2022-09-01T10:47:29.970Z,1.00
2022-09-01T10:50:01.711Z,0.80
2022-09-01T10:52:43.424Z,1.20
2022-09-01T10:55:24.458Z,1.60
2022-09-01T10:57:55.857Z,1.23
2022-09-01T11:00:36.054Z,1.20
2022-09-01T11:06:12.084Z,1.60
2022-09-01T11:08:56.918Z,1.00
2022-09-01T11:11:35.503Z,1.57
2022-09-01T11:14:05.260Z,1.20
2022-09-01T11:16:46.417Z,0.93
2022-09-01T11:19:37.566Z,1.10
2022-09-01T11:22:26.382Z,1.30
2022-09-01T11:25:12.289Z,1.37
2022-09-01T11:27:48.829Z,1.30
2022-09-01T11:30:18.972Z,1.20
2022-09-01T11:32:48.948Z,1.53
2022-09-01T11:35:20.375Z,1.40
2022-09-01T11:37:50.862Z,1.07
2022-09-01T11:40:23.912Z,1.30
2022-09-01T11:42:53.778Z,1.30
2022-09-01T11:45:25.492Z,1.23
2022-09-01T11:47:55.516Z,1.13
2022-09-01T11:50:24.278Z,1.20
2022-09-01T11:53:04.884Z,1.40
2022-09-01T11:55:42.806Z,1.07
2022-09-01T11:58:17.839Z,1.17
2022-09-01T12:00:45.390Z,1.13
2022-09-01T12:03:21.604Z,1.17
2022-09-01T12:05:50.828Z,1.30
2022-09-01T12:08:24.223Z,1.30
2022-09-01T12:10:51.712Z,0.90
2022-09-01T12:13:23.061Z,1.33
2022-09-01T12:16:18.738Z,0.80
2022-09-01T12:18:51.156Z,0.80
2022-09-01T12:21:23.376Z,0.87
2022-09-01T12:23:50.639Z,1.10
2022-09-01T12:26:24.320Z,1.23
2022-09-01T12:28:51.562Z,1.63
2022-09-01T12:31:27.034Z,1.40
2022-09-01T12:33:54.952Z,1.00
2022-09-01T12:36:22.210Z,1.30
2022-09-01T12:38:49.632Z,1.00
2022-09-01T12:41:35.566Z,1.00
2022-09-01T12:44:21.572Z,0.90
2022-09-01T12:46:48.710Z,0.80
2022-09-01T12:49:28.766Z,0.93
2022-09-01T12:52:20.451Z,1.00
2022-09-01T12:54:48.891Z,1.03
2022-09-01T12:57:29.652Z,1.00
2022-09-01T13:00:12.276Z,1.10
2022-09-01T13:02:45.311Z,0.70
2022-09-01T13:05:40.941Z,1.10
2022-09-01T13:08:12.804Z,1.20
2022-09-01T13:10:46.363Z,1.00
2022-09-01T13:13:14.726Z,1.10
2022-09-01T13:15:46.587Z,1.17
2022-09-01T13:18:13.871Z,0.90
2022-09-01T13:20:42.033Z,1.20
2022-09-01T13:23:09.642Z,1.00
2022-09-01T13:25:36.374Z,0.90
2022-09-01T13:28:03.834Z,1.33
2022-09-01T13:30:31.476Z,1.00
2022-09-01T13:35:45.192Z,1.10
2022-09-01T13:38:16.029Z,1.00
2022-09-01T13:40:45.519Z,1.23
2022-09-01T13:43:12.942Z,0.83
2022-09-01T13:45:41.872Z,1.20
2022-09-01T13:48:17.347Z,0.93
2022-09-01T13:53:33.236Z,1.00
2022-09-01T13:56:00.289Z,0.93
2022-09-01T13:58:27.131Z,1.03
2022-09-01T14:00:54.361Z,1.20
2022-09-01T14:03:23.779Z,1.33
2022-09-01T14:05:50.936Z,1.13
2022-09-01T14:08:20.968Z,0.90
2022-09-01T14:10:50.904Z,1.33
2022-09-01T14:13:19.912Z,0.90
2022-09-01T14:15:48.271Z,0.73
2022-09-01T14:18:16.303Z,1.40
2022-09-01T14:20:47.541Z,1.10
2022-09-01T14:23:15.459Z,1.20
2022-09-01T14:25:45.611Z,0.90
2022-09-01T14:28:13.309Z,0.97
2022-09-01T14:30:43.028Z,0.60
2022-09-01T14:33:11.079Z,0.80
2022-09-01T14:35:44.394Z,0.90
2022-09-01T14:38:13.424Z,1.00
2022-09-01T14:40:41.668Z,0.90
2022-09-01T14:43:10.382Z,0.80
2022-09-01T14:45:37.838Z,0.90
2022-09-01T14:48:05.085Z,1.00
2022-09-01T14:50:32.730Z,0.80
2022-09-01T14:53:01.119Z,0.80
2022-09-01T14:55:30.202Z,0.80
2022-09-01T14:57:57.945Z,0.77
2022-09-01T15:00:27.867Z,0.90
2022-09-01T15:02:55.492Z,0.80
2022-09-01T15:05:23.152Z,0.77
2022-09-01T15:07:50.667Z,1.03
2022-09-01T15:10:25.321Z,0.70
2022-09-01T15:12:57.480Z,0.70
2022-09-01T15:15:25.494Z,0.80
2022-09-01T15:17:53.038Z,1.00
2022-09-01T15:20:39.051Z,1.00
2022-09-01T15:23:06.686Z,0.70
2022-09-01T15:25:33.706Z,0.80
2022-09-01T15:28:01.425Z,0.80
2022-09-01T15:30:28.482Z,1.00
2022-09-01T15:32:55.319Z,1.00
2022-09-01T15:35:22.592Z,0.80
2022-09-01T15:37:51.313Z,0.90
2022-09-01T15:40:19.454Z,0.70
2022-09-01T15:42:46.484Z,0.50
2022-09-01T15:45:16.648Z,0.80
2022-09-01T15:47:45.795Z,0.90
2022-09-01T15:50:16.938Z,0.70
2022-09-01T15:52:57.729Z,1.00
2022-09-01T15:55:45.681Z,0.83
2022-09-01T15:58:15.677Z,0.90
2022-09-01T16:00:44.057Z,0.80
2022-09-01T16:03:11.704Z,0.70
2022-09-01T16:05:40.151Z,0.90
2022-09-01T16:08:09.597Z,0.80
2022-09-01T16:10:39.908Z,1.20
2022-09-01T16:13:07.252Z,0.80
2022-09-01T16:15:35.318Z,1.10
2022-09-01T16:18:28.757Z,0.73
2022-09-01T16:21:06.086Z,1.00
2022-09-01T16:23:52.784Z,0.70
2022-09-01T16:26:23.133Z,1.03
2022-09-01T16:28:54.888Z,1.10
2022-09-01T16:31:27.992Z,0.80
2022-09-01T16:33:57.555Z,1.10
2022-09-01T16:36:42.440Z,0.70
2022-09-01T16:39:27.777Z,0.90
2022-09-01T16:42:04.668Z,0.97
2022-09-01T16:44:56.294Z,1.10
2022-09-01T16:47:41.118Z,1.00
2022-09-01T16:50:33.936Z,1.00
2022-09-01T16:53:25.526Z,1.20
2022-09-01T16:56:14.703Z,1.10
2022-09-01T16:59:21.624Z,1.20
2022-09-01T17:02:06.045Z,1.40
2022-09-01T17:04:47.450Z,1.43
2022-09-01T17:07:21.677Z,0.70
2022-09-01T17:10:28.716Z,1.00
2022-09-01T17:12:57.224Z,0.97
2022-09-01T17:15:39.599Z,1.37
2022-09-01T17:18:24.824Z,0.97
2022-09-01T17:20:58.929Z,1.00
2022-09-01T17:23:35.530Z,1.20
2022-09-01T17:26:07.273Z,1.20
2022-09-01T17:28:44.164Z,1.20
2022-09-01T17:31:20.594Z,1.00
2022-09-01T17:34:27.982Z,1.10
2022-09-01T17:36:57.679Z,0.90
2022-09-01T17:39:43.649Z,1.07
2022-09-01T17:42:44.599Z,1.23
2022-09-01T17:45:20.371Z,1.27
2022-09-01T17:48:03.557Z,1.30
2022-09-01T17:50:39.188Z,0.97
2022-09-01T17:53:47.621Z,1.43
2022-09-01T17:56:44.283Z,0.80
2022-09-01T17:59:14.531Z,1.10
2022-09-01T18:01:47.183Z,0.93
2022-09-01T18:04:35.972Z,1.30
2022-09-01T18:07:30.640Z,1.23
2022-09-01T18:10:00.997Z,1.37
2022-09-01T18:12:33.112Z,1.27
2022-09-01T18:15:14.458Z,1.13
2022-09-01T18:18:23.665Z,1.20
2022-09-01T18:20:55.842Z,1.50
2022-09-01T18:23:22.608Z,0.87
2022-09-01T18:25:57.715Z,1.17
2022-09-01T18:28:24.478Z,0.87
2022-09-01T18:31:02.712Z,1.20
2022-09-01T18:33:36.508Z,1.63
2022-09-01T18:36:14.674Z,1.17
2022-09-01T18:38:51.431Z,1.20
2022-09-01T18:41:48.660Z,0.90
2022-09-01T18:44:54.904Z,1.23
2022-09-01T18:47:55.371Z,1.20
2022-09-01T18:50:30.766Z,0.83
2022-09-01T18:52:57.456Z,1.20
2022-09-01T18:55:56.384Z,1.00
2022-09-01T18:58:49.429Z,1.10
2022-09-01T19:01:29.189Z,1.10
2022-09-01T19:04:11.857Z,1.23
2022-09-01T19:06:59.727Z,1.30
2022-09-01T19:09:29.591Z,1.03
2022-09-01T19:12:24.238Z,1.00
2022-09-01T19:15:15.488Z,1.80
2022-09-01T19:17:50.720Z,1.37
2022-09-01T19:20:26.701Z,1.10
2022-09-01T19:23:06.344Z,1.70
2022-09-01T19:25:36.494Z,1.43
2022-09-01T19:28:13.781Z,1.53
2022-09-01T19:30:47.739Z,1.40
2022-09-01T19:33:19.926Z,1.60
2022-09-01T19:35:50.944Z,1.10
2022-09-01T19:38:27.399Z,1.17
2022-09-01T19:41:03.630Z,1.10
2022-09-01T19:43:35.290Z,1.40
2022-09-01T19:46:13.986Z,1.57
2022-09-01T19:48:50.984Z,1.43
2022-09-01T19:51:27.593Z,1.00
2022-09-01T19:54:24.264Z,1.20
2022-09-01T19:56:57.874Z,1.43
2022-09-01T19:59:37.323Z,1.20
2022-09-01T20:02:21.055Z,1.40
2022-09-01T20:05:03.142Z,1.20
2022-09-01T20:07:44.254Z,1.40
2022-09-01T20:10:37.580Z,1.00
2022-09-01T20:13:22.476Z,1.00
2022-09-01T20:16:00.560Z,1.27
2022-09-01T20:18:32.354Z,1.67
2022-09-01T20:21:02.970Z,1.40
2022-09-01T20:23:37.090Z,2.17
2022-09-01T20:26:09.723Z,1.77
2022-09-01T20:29:07.452Z,1.60
2022-09-01T20:31:40.303Z,1.83
2022-09-01T20:34:25.226Z,1.40
2022-09-01T20:36:59.124Z,1.30
2022-09-01T20:40:04.813Z,1.40
2022-09-01T20:43:08.788Z,2.00
2022-09-01T20:45:36.196Z,1.30
2022-09-01T20:48:06.480Z,1.30
2022-09-01T20:51:07.756Z,1.33
2022-09-01T20:54:09.859Z,1.40
2022-09-01T20:56:50.783Z,1.70
2022-09-01T20:59:29.824Z,1.40
2022-09-01T21:01:59.711Z,1.60
2022-09-01T21:04:35.856Z,1.60
2022-09-01T21:07:29.302Z,1.30
2022-09-01T21:10:38.785Z,1.47
2022-09-01T21:13:33.064Z,1.23
2022-09-01T21:16:10.901Z,1.10
2022-09-01T21:19:00.750Z,1.27
2022-09-01T21:22:00.104Z,1.87
2022-09-01T21:24:26.831Z,1.17
2022-09-01T21:26:56.586Z,1.60
2022-09-01T21:29:36.504Z,1.47
2022-09-01T21:32:03.787Z,1.70
2022-09-01T21:34:30.531Z,1.30
2022-09-01T21:36:57.292Z,1.60
2022-09-01T21:39:24.338Z,1.10
2022-09-01T21:41:51.321Z,1.37
2022-09-01T21:44:18.368Z,1.40
2022-09-01T21:46:45.187Z,1.30
2022-09-01T21:49:14.186Z,2.23
2022-09-01T21:51:42.008Z,1.40
2022-09-01T21:54:09.376Z,1.40
2022-09-01T21:56:36.375Z,1.50
2022-09-01T21:59:03.279Z,1.40
2022-09-01T22:01:31.823Z,1.30
2022-09-01T22:03:59.119Z,1.40
2022-09-01T22:06:26.748Z,1.17
2022-09-01T22:08:54.290Z,1.23
2022-09-01T22:11:21.974Z,1.17
2022-09-01T22:13:49.674Z,1.00
2022-09-01T22:16:18.388Z,1.03
2022-09-01T22:18:45.329Z,1.27
2022-09-01T22:21:12.211Z,1.30
2022-09-01T22:23:40.286Z,1.63
2022-09-01T22:26:12.421Z,1.20
2022-09-01T22:28:41.962Z,1.30
2022-09-01T22:31:13.877Z,1.37
2022-09-01T22:33:41.132Z,1.33
2022-09-01T22:36:08.509Z,1.00
2022-09-01T22:38:35.304Z,1.47
2022-09-01T22:41:02.636Z,1.33
2022-09-01T22:43:30.779Z,1.63
2022-09-01T22:45:59.446Z,1.13
2022-09-01T22:48:27.538Z,1.27
2022-09-01T22:50:54.433Z,1.20
2022-09-01T22:53:22.694Z,1.30
2022-09-01T22:55:51.193Z,1.33
2022-09-01T22:58:18.501Z,1.20
2022-09-01T23:00:52.511Z,1.23
2022-09-01T23:03:20.792Z,1.60
2022-09-01T23:05:48.462Z,1.40
2022-09-01T23:08:16.153Z,1.33
2022-09-01T23:10:43.263Z,1.20
2022-09-01T23:13:10.488Z,1.30
2022-09-01T23:15:37.875Z,1.40
2022-09-01T23:18:04.716Z,1.47
2022-09-01T23:20:31.508Z,1.50
2022-09-01T23:22:58.232Z,1.10
2022-09-01T23:25:24.955Z,1.87
2022-09-01T23:27:51.874Z,1.30
2022-09-01T23:30:18.904Z,1.50
2022-09-01T23:32:46.015Z,1.30
2022-09-01T23:35:12.921Z,1.30
2022-09-01T23:37:39.658Z,1.70
2022-09-01T23:40:07.763Z,1.20
2022-09-01T23:42:35.066Z,1.23
2022-09-01T23:45:02.125Z,1.13
2022-09-01T23:47:31.127Z,1.50
2022-09-01T23:49:58.105Z,0.93
2022-09-01T23:52:24.899Z,1.40
2022-09-01T23:54:51.848Z,1.40
2022-09-01T23:57:19.064Z,1.57
2022-09-01T23:59:45.987Z,1.20
